createdAt,value
2018-07-06T00:00:20.806Z,70.83
2018-07-06T00:01:20.806Z,70.93
2018-07-06T00:02:20.798Z,70.73
2018-07-06T00:03:20.821Z,70.62
2018-07-06T00:04:20.762Z,70.79
2018-07-06T00:05:20.752Z,70.83
2018-07-06T00:06:20.739Z,70.69
2018-07-06T00:07:20.770Z,70.83
2018-07-06T00:08:20.718Z,71.13
2018-07-06T00:09:20.709Z,71.33
2018-07-06T00:10:20.700Z,71.33
2018-07-06T00:11:20.693Z,71.13
2018-07-06T00:12:20.707Z,71.44
2018-07-06T00:13:20.678Z,71.44
2018-07-06T00:14:20.654Z,71.23
2018-07-06T00:15:20.643Z,71.33
2018-07-06T00:16:20.635Z,70.73
2018-07-06T00:17:20.624Z,70.73
2018-07-06T00:18:20.629Z,71.03
2018-07-06T00:19:20.607Z,71.44
2018-07-06T00:20:20.594Z,71.13
2018-07-06T00:21:20.596Z,71.13
2018-07-06T00:22:20.570Z,71.53
2018-07-06T00:23:20.560Z,71.44
2018-07-06T00:24:20.548Z,71.23
2018-07-06T00:25:20.551Z,71.33
2018-07-06T00:26:20.530Z,71.06
2018-07-06T00:27:20.518Z,71.97
2018-07-06T00:28:20.506Z,71.47
2018-07-06T00:29:20.510Z,71.94
2018-07-06T00:30:20.498Z,72.44
2018-07-06T00:31:20.490Z,72.38
2018-07-06T00:32:20.461Z,72.38
2018-07-06T00:33:20.498Z,72.38
2018-07-06T00:34:20.443Z,71.57
2018-07-06T00:35:20.432Z,71.97
2018-07-06T00:36:20.419Z,72.04
2018-07-06T00:37:20.411Z,71.97
2018-07-06T00:38:20.403Z,72.08
2018-07-06T00:39:20.421Z,71.87
2018-07-06T00:40:20.379Z,70.93
2018-07-06T00:41:20.368Z,71.33
2018-07-06T00:42:20.373Z,71.33
2018-07-06T00:43:20.347Z,71.33
2018-07-06T00:44:20.438Z,71.33
2018-07-06T00:45:20.324Z,70.73
2018-07-06T00:46:20.317Z,70.73
2018-07-06T00:47:20.303Z,70.53
2018-07-06T00:48:20.321Z,70.73
2018-07-06T00:49:20.282Z,70.42
2018-07-06T00:50:20.271Z,70.49
2018-07-06T00:51:20.264Z,70.39
2018-07-06T00:52:20.250Z,70.29
2018-07-06T00:53:20.239Z,70.59
2018-07-06T00:54:20.245Z,70.09
2018-07-06T00:55:20.271Z,70.09
2018-07-06T00:56:20.210Z,70.49
2018-07-06T00:57:20.228Z,70.79
2018-07-06T00:58:20.190Z,70.83
2018-07-06T00:59:20.178Z,70.79
2018-07-06T01:00:20.227Z,70.69
2018-07-06T01:01:20.157Z,70.69
2018-07-06T01:02:20.146Z,70.69
2018-07-06T01:03:20.136Z,70.69
2018-07-06T01:04:20.123Z,70.09
2018-07-06T01:05:20.116Z,70.19
2018-07-06T01:06:20.118Z,70.29
2018-07-06T01:07:20.093Z,70.19
2018-07-06T01:08:20.107Z,70.09
2018-07-06T01:09:20.069Z,70.29
2018-07-06T01:10:20.073Z,70.29
2018-07-06T01:11:20.071Z,70.09
2018-07-06T01:12:20.038Z,70.09
2018-07-06T01:13:20.028Z,69.98
2018-07-06T01:14:20.040Z,70.29
2018-07-06T01:15:20.011Z,70.15
2018-07-06T01:16:20.000Z,69.78
2018-07-06T01:17:20.006Z,69.78
2018-07-06T01:18:19.975Z,69.65
2018-07-06T01:19:19.967Z,69.95
2018-07-06T01:20:19.953Z,70.06
2018-07-06T01:21:19.945Z,69.85
2018-07-06T01:22:19.935Z,69.75
2018-07-06T01:23:19.939Z,69.95
2018-07-06T01:24:19.914Z,69.85
2018-07-06T01:25:19.903Z,69.95
2018-07-06T01:26:19.893Z,69.89
2018-07-06T01:27:19.896Z,69.78
2018-07-06T01:28:19.868Z,69.78
2018-07-06T01:29:19.874Z,69.85
2018-07-06T01:30:19.847Z,69.95
2018-07-06T01:31:19.842Z,70.26
2018-07-06T01:32:19.860Z,69.04
2018-07-06T01:33:19.816Z,68.84
2018-07-06T01:34:19.834Z,68.84
2018-07-06T01:35:19.794Z,69.15
2018-07-06T01:36:19.788Z,68.84
2018-07-06T01:37:19.776Z,68.95
2018-07-06T01:38:19.789Z,68.74
2018-07-06T01:39:19.757Z,68.74
2018-07-06T01:40:19.741Z,69.04
2018-07-06T01:41:19.732Z,69.15
2018-07-06T01:42:19.725Z,70.09
2018-07-06T01:43:19.710Z,69.89
2018-07-06T01:44:19.715Z,69.98
2018-07-06T01:45:19.705Z,69.89
2018-07-06T01:46:19.677Z,69.89
2018-07-06T01:47:19.668Z,70.09
2018-07-06T01:48:19.657Z,70.29
2018-07-06T01:49:19.646Z,70.29
2018-07-06T01:50:19.651Z,69.28
2018-07-06T01:51:19.623Z,69.15
2018-07-06T01:52:19.634Z,69.24
2018-07-06T01:53:19.602Z,69.65
2018-07-06T01:54:19.594Z,70.06
2018-07-06T01:55:19.583Z,70.06
2018-07-06T01:56:19.587Z,69.85
2018-07-06T01:57:19.563Z,69.75
2018-07-06T01:58:19.552Z,70.09
2018-07-06T01:59:19.542Z,70.09
2018-07-06T02:00:19.528Z,69.78
2018-07-06T02:01:19.542Z,69.85
2018-07-06T02:02:19.510Z,69.89
2018-07-06T02:03:19.498Z,70.09
2018-07-06T02:04:19.488Z,69.75
2018-07-06T02:05:19.474Z,69.85
2018-07-06T02:06:19.466Z,69.98
2018-07-06T02:07:19.467Z,69.89
2018-07-06T02:08:19.441Z,69.78
2018-07-06T02:09:19.474Z,69.85
2018-07-06T02:10:19.417Z,69.98
2018-07-06T02:11:19.409Z,70.06
2018-07-06T02:12:19.398Z,69.95
2018-07-06T02:13:19.382Z,69.85
2018-07-06T02:14:19.377Z,69.95
2018-07-06T02:15:19.403Z,69.95
2018-07-06T02:16:19.352Z,70.26
2018-07-06T02:17:19.338Z,69.24
2018-07-06T02:18:19.329Z,69.15
2018-07-06T02:19:19.319Z,69.24
2018-07-06T02:20:19.307Z,69.24
2018-07-06T02:21:19.308Z,69.24
2018-07-06T02:22:19.309Z,69.04
2018-07-06T02:23:19.275Z,69.15
2018-07-06T02:24:19.261Z,70.06
2018-07-06T02:25:19.253Z,70.06
2018-07-06T02:26:19.242Z,69.85
2018-07-06T02:27:19.231Z,69.85
2018-07-06T02:28:19.233Z,69.95
2018-07-06T02:29:19.207Z,70.06
2018-07-06T02:30:19.196Z,69.95
2018-07-06T02:31:19.183Z,69.95
2018-07-06T02:32:19.175Z,69.75
2018-07-06T02:33:19.176Z,69.85
2018-07-06T02:34:19.154Z,69.75
2018-07-06T02:35:19.181Z,69.85
2018-07-06T02:36:19.129Z,69.95
2018-07-06T02:37:19.120Z,69.95
2018-07-06T02:38:19.115Z,70.06
2018-07-06T02:39:19.095Z,69.85
2018-07-06T02:40:19.086Z,69.95
2018-07-06T02:41:19.111Z,69.95
2018-07-06T02:42:19.069Z,69.75
2018-07-06T02:43:19.052Z,69.85
2018-07-06T02:44:19.040Z,69.95
2018-07-06T02:45:19.028Z,69.95
2018-07-06T02:46:19.063Z,69.95
2018-07-06T02:47:19.014Z,69.85
2018-07-06T02:48:18.997Z,69.82
2018-07-06T02:49:18.984Z,69.82
2018-07-06T02:50:18.976Z,69.82
2018-07-06T02:51:18.967Z,70.06
2018-07-06T02:52:18.974Z,69.75
2018-07-06T02:53:18.944Z,69.85
2018-07-06T02:54:18.932Z,69.75
2018-07-06T02:55:19.002Z,70.06
2018-07-06T02:56:18.910Z,70.06
2018-07-06T02:57:18.899Z,70.06
2018-07-06T02:58:18.903Z,70.15
2018-07-06T02:59:18.882Z,70.15
2018-07-06T03:00:18.890Z,70.06
2018-07-06T03:01:18.871Z,70.06
2018-07-06T03:02:18.846Z,69.85
2018-07-06T03:03:19.743Z,69.75
2018-07-06T03:04:18.820Z,69.85
2018-07-06T03:05:18.831Z,70.12
2018-07-06T03:06:18.798Z,69.31
2018-07-06T03:07:18.811Z,69.42
2018-07-06T03:08:18.784Z,69.62
2018-07-06T03:09:18.774Z,69.52
2018-07-06T03:10:18.755Z,69.75
2018-07-06T03:11:18.747Z,69.92
2018-07-06T03:12:18.736Z,70.06
2018-07-06T03:13:18.743Z,70.15
2018-07-06T03:14:18.712Z,70.06
2018-07-06T03:15:18.703Z,70.15
2018-07-06T03:16:18.690Z,69.95
2018-07-06T03:17:18.678Z,70.06
2018-07-06T03:18:18.696Z,69.95
2018-07-06T03:19:18.679Z,69.82
2018-07-06T03:20:18.663Z,69.85
2018-07-06T03:21:18.635Z,69.95
2018-07-06T03:22:18.627Z,69.95
2018-07-06T03:23:18.630Z,69.95
2018-07-06T03:24:18.601Z,70.06
2018-07-06T03:25:18.590Z,70.15
2018-07-06T03:26:18.596Z,70.06
2018-07-06T03:27:18.593Z,70.15
2018-07-06T03:28:18.729Z,70.26
2018-07-06T03:29:18.546Z,70.15
2018-07-06T03:30:18.538Z,70.06
2018-07-06T03:31:18.526Z,70.06
2018-07-06T03:32:18.514Z,70.15
2018-07-06T03:33:18.501Z,70.02
2018-07-06T03:34:18.506Z,69.95
2018-07-06T03:35:18.481Z,70.36
2018-07-06T03:36:18.466Z,70.06
2018-07-06T03:37:18.455Z,70.15
2018-07-06T03:38:18.447Z,70.15
2018-07-06T03:39:18.480Z,70.12
2018-07-06T03:40:18.424Z,70.26
2018-07-06T03:41:18.414Z,70.02
2018-07-06T03:42:18.402Z,70.22
2018-07-06T03:43:18.390Z,70.15
2018-07-06T03:44:18.379Z,70.06
2018-07-06T03:45:18.383Z,69.85
2018-07-06T03:46:18.357Z,69.75
2018-07-06T03:47:18.346Z,69.65
2018-07-06T03:48:18.343Z,69.92
2018-07-06T03:49:18.322Z,70.02
2018-07-06T03:50:18.324Z,69.82
2018-07-06T03:51:18.303Z,69.82
2018-07-06T03:52:18.286Z,69.72
2018-07-06T03:53:18.276Z,69.92
2018-07-06T03:54:18.275Z,69.92
2018-07-06T03:55:18.297Z,70.02
2018-07-06T03:56:18.246Z,70.02
2018-07-06T03:57:18.230Z,69.92
2018-07-06T03:58:18.246Z,69.82
2018-07-06T03:59:18.214Z,70.12
2018-07-06T04:00:18.199Z,70.02
2018-07-06T04:01:18.219Z,69.92
2018-07-06T04:02:18.203Z,70.22
2018-07-06T04:03:18.163Z,69.92
2018-07-06T04:04:18.154Z,69.92
2018-07-06T04:05:18.154Z,69.92
2018-07-06T04:06:18.176Z,70.02
2018-07-06T04:07:18.117Z,69.82
2018-07-06T04:08:18.110Z,70.02
2018-07-06T04:09:18.130Z,69.82
2018-07-06T04:10:18.088Z,69.72
2018-07-06T04:11:18.076Z,69.72
2018-07-06T04:12:18.064Z,69.72
2018-07-06T04:13:18.055Z,69.92
2018-07-06T04:14:18.060Z,69.92
2018-07-06T04:15:18.047Z,70.12
2018-07-06T04:16:18.073Z,69.92
2018-07-06T04:17:18.020Z,69.89
2018-07-06T04:18:17.997Z,69.92
2018-07-06T04:19:17.986Z,69.68
2018-07-06T04:20:17.971Z,69.82
2018-07-06T04:21:17.976Z,69.79
2018-07-06T04:22:17.950Z,69.79
2018-07-06T04:23:17.938Z,69.89
2018-07-06T04:24:17.927Z,69.89
2018-07-06T04:25:17.920Z,69.89
2018-07-06T04:26:17.922Z,69.99
2018-07-06T04:27:17.939Z,69.68
2018-07-06T04:28:17.914Z,69.89
2018-07-06T04:29:17.871Z,70.22
2018-07-06T04:30:17.894Z,70.12
2018-07-06T04:31:17.849Z,70.12
2018-07-06T04:32:17.840Z,70.32
2018-07-06T04:33:17.827Z,70.02
2018-07-06T04:34:17.836Z,70.12
2018-07-06T04:35:17.807Z,70.93
2018-07-06T04:36:17.797Z,70.62
2018-07-06T04:37:17.786Z,70.62
2018-07-06T04:38:17.773Z,71.33
2018-07-06T04:39:17.760Z,71.33
2018-07-06T04:40:17.764Z,71.23
2018-07-06T04:41:17.740Z,71.13
2018-07-06T04:42:17.730Z,71.33
2018-07-06T04:43:17.789Z,71.23
2018-07-06T04:44:17.714Z,71.13
2018-07-06T04:45:17.697Z,71.53
2018-07-06T04:46:17.686Z,71.03
2018-07-06T04:47:17.676Z,70.93
2018-07-06T04:48:17.662Z,71.03
2018-07-06T04:49:17.682Z,71.64
2018-07-06T04:50:17.638Z,71.77
2018-07-06T04:51:17.643Z,72.17
2018-07-06T04:52:17.634Z,72.38
2018-07-06T04:53:17.605Z,72.14
2018-07-06T04:54:17.600Z,72.17
2018-07-06T04:55:17.583Z,72.24
2018-07-06T04:56:17.595Z,72.34
2018-07-06T04:57:17.560Z,71.73
2018-07-06T04:58:17.553Z,71.94
2018-07-06T04:59:17.559Z,72.38
2018-07-06T05:00:17.527Z,72.27
2018-07-06T05:01:17.516Z,72.27
2018-07-06T05:02:17.520Z,71.84
2018-07-06T05:03:17.498Z,72.04
2018-07-06T05:04:17.488Z,71.84
2018-07-06T05:05:17.472Z,71.64
2018-07-06T05:06:17.461Z,71.94
2018-07-06T05:07:17.513Z,71.84
2018-07-06T05:08:17.446Z,71.84
2018-07-06T05:09:17.443Z,71.73
2018-07-06T05:10:17.419Z,71.44
2018-07-06T05:11:17.404Z,71.94
2018-07-06T05:12:17.426Z,71.73
2018-07-06T05:13:17.386Z,72.04
2018-07-06T05:14:17.373Z,71.64
2018-07-06T05:15:17.363Z,71.94
2018-07-06T05:16:17.349Z,71.84
2018-07-06T05:17:17.341Z,71.84
2018-07-06T05:18:17.342Z,71.84
2018-07-06T05:19:17.362Z,71.70
2018-07-06T05:20:17.307Z,71.33
2018-07-06T05:21:17.313Z,71.20
2018-07-06T05:22:17.283Z,71.60
2018-07-06T05:23:17.275Z,71.40
2018-07-06T05:24:17.280Z,71.40
2018-07-06T05:25:17.250Z,71.10
2018-07-06T05:26:17.240Z,71.10
2018-07-06T05:27:17.250Z,70.89
2018-07-06T05:28:17.218Z,71.20
2018-07-06T05:29:17.207Z,71.20
2018-07-06T05:30:17.215Z,71.70
2018-07-06T05:31:17.187Z,71.80
2018-07-06T05:32:17.174Z,71.91
2018-07-06T05:33:17.164Z,71.20
2018-07-06T05:34:17.154Z,71.20
2018-07-06T05:35:17.142Z,71.30
2018-07-06T05:36:17.159Z,71.40
2018-07-06T05:37:17.121Z,71.00
2018-07-06T05:38:17.110Z,71.17
2018-07-06T05:39:17.100Z,71.30
2018-07-06T05:40:17.091Z,70.79
2018-07-06T05:41:17.078Z,71.30
2018-07-06T05:42:17.083Z,71.30
2018-07-06T05:43:17.059Z,71.17
2018-07-06T05:44:17.045Z,71.30
2018-07-06T05:45:17.068Z,71.20
2018-07-06T05:46:17.066Z,71.30
2018-07-06T05:47:17.028Z,71.20
2018-07-06T05:48:17.014Z,71.17
2018-07-06T05:49:16.997Z,71.20
2018-07-06T05:50:16.994Z,71.20
2018-07-06T05:51:16.970Z,71.30
2018-07-06T05:52:16.972Z,71.10
2018-07-06T05:53:16.948Z,71.30
2018-07-06T05:54:16.955Z,71.20
2018-07-06T05:55:16.927Z,71.10
2018-07-06T05:56:16.925Z,71.17
2018-07-06T05:57:16.905Z,71.26
2018-07-06T05:58:16.937Z,71.06
2018-07-06T05:59:16.902Z,71.00
2018-07-06T06:00:16.895Z,71.10
2018-07-06T06:01:16.862Z,71.10
2018-07-06T06:02:16.853Z,71.20
2018-07-06T06:03:16.847Z,71.30
2018-07-06T06:04:16.831Z,71.40
2018-07-06T06:05:16.836Z,70.97
2018-07-06T06:06:16.851Z,71.26
2018-07-06T06:07:16.807Z,70.26
2018-07-06T06:08:16.817Z,70.06
2018-07-06T06:09:16.800Z,70.69
2018-07-06T06:10:16.763Z,70.29
2018-07-06T06:11:16.769Z,69.99
2018-07-06T06:12:16.814Z,69.99
2018-07-06T06:13:16.746Z,69.99
2018-07-06T06:14:16.720Z,70.09
2018-07-06T06:15:16.710Z,69.79
2018-07-06T06:16:16.712Z,69.79
2018-07-06T06:17:16.690Z,69.68
2018-07-06T06:18:16.682Z,69.79
2018-07-06T06:19:16.669Z,69.79
2018-07-06T06:20:16.653Z,69.89
2018-07-06T06:21:16.686Z,69.89
2018-07-06T06:22:16.631Z,69.99
2018-07-06T06:23:16.621Z,69.99
2018-07-06T06:24:16.649Z,70.29
2018-07-06T06:25:16.601Z,69.99
2018-07-06T06:26:16.591Z,69.79
2018-07-06T06:27:16.589Z,69.89
2018-07-06T06:28:16.567Z,69.79
2018-07-06T06:29:16.570Z,69.99
2018-07-06T06:30:16.548Z,70.09
2018-07-06T06:31:16.535Z,69.99
2018-07-06T06:32:16.540Z,69.99
2018-07-06T06:33:16.599Z,69.95
2018-07-06T06:34:16.503Z,69.85
2018-07-06T06:35:16.491Z,70.09
2018-07-06T06:36:16.478Z,69.89
2018-07-06T06:37:16.469Z,69.99
2018-07-06T06:38:16.473Z,70.09
2018-07-06T06:39:16.473Z,70.19
2018-07-06T06:40:16.436Z,69.99
2018-07-06T06:41:16.426Z,69.99
2018-07-06T06:42:16.433Z,70.39
2018-07-06T06:43:16.405Z,69.99
2018-07-06T06:44:16.397Z,69.99
2018-07-06T06:45:16.418Z,70.19
2018-07-06T06:46:16.373Z,70.49
2018-07-06T06:47:16.360Z,70.19
2018-07-06T06:48:16.352Z,70.06
2018-07-06T06:49:16.341Z,69.85
2018-07-06T06:50:16.369Z,69.75
2018-07-06T06:51:16.317Z,70.26
2018-07-06T06:52:16.310Z,70.09
2018-07-06T06:53:16.300Z,70.15
2018-07-06T06:54:16.325Z,70.15
2018-07-06T06:55:16.282Z,69.65
2018-07-06T06:56:16.310Z,70.15
2018-07-06T06:57:16.264Z,69.65
2018-07-06T06:58:16.242Z,69.65
2018-07-06T06:59:16.276Z,70.15
2018-07-06T07:00:21.054Z,69.95
2018-07-06T07:01:16.210Z,69.85
2018-07-06T07:02:16.202Z,69.85
2018-07-06T07:03:16.188Z,69.85
2018-07-06T07:04:16.180Z,69.75
2018-07-06T07:05:16.219Z,69.65
2018-07-06T07:06:16.159Z,69.85
2018-07-06T07:07:16.184Z,70.15
2018-07-06T07:08:16.135Z,69.85
2018-07-06T07:09:16.125Z,69.95
2018-07-06T07:10:16.160Z,69.65
2018-07-06T07:11:16.120Z,69.62
2018-07-06T07:12:16.094Z,69.65
2018-07-06T07:13:16.082Z,69.72
2018-07-06T07:14:16.139Z,70.15
2018-07-06T07:15:16.059Z,70.22
2018-07-06T07:16:16.063Z,70.12
2018-07-06T07:17:16.066Z,69.92
2018-07-06T07:18:16.031Z,69.72
2018-07-06T07:19:16.018Z,69.62
2018-07-06T07:20:16.021Z,69.62
2018-07-06T07:21:16.046Z,69.92
2018-07-06T07:22:15.985Z,70.02
2018-07-06T07:23:15.973Z,69.82
2018-07-06T07:24:15.966Z,69.72
2018-07-06T07:25:15.958Z,70.02
2018-07-06T07:26:15.956Z,69.52
2018-07-06T07:27:15.965Z,69.82
2018-07-06T07:28:15.920Z,69.92
2018-07-06T07:29:15.911Z,69.62
2018-07-06T07:30:16.050Z,69.92
2018-07-06T07:31:15.888Z,69.72
2018-07-06T07:32:15.877Z,69.92
2018-07-06T07:33:15.891Z,69.92
2018-07-06T07:34:15.914Z,70.02
2018-07-06T07:35:15.848Z,70.19
2018-07-06T07:36:15.836Z,69.18
2018-07-06T07:37:15.858Z,68.68
2018-07-06T07:38:15.815Z,68.68
2018-07-06T07:39:15.819Z,68.65
2018-07-06T07:40:15.794Z,68.75
2018-07-06T07:41:15.780Z,68.15
2018-07-06T07:42:15.828Z,68.44
2018-07-06T07:43:15.758Z,67.84
2018-07-06T07:44:15.771Z,67.61
2018-07-06T07:45:15.751Z,68.11
2018-07-06T07:46:15.727Z,67.81
2018-07-06T07:47:15.718Z,67.00
2018-07-06T07:48:15.713Z,67.21
2018-07-06T07:49:15.698Z,66.80
2018-07-06T07:50:15.697Z,66.80
2018-07-06T07:51:15.674Z,67.21
2018-07-06T07:52:15.666Z,66.91
2018-07-06T07:53:15.699Z,66.91
2018-07-06T07:54:15.667Z,67.21
2018-07-06T07:55:15.639Z,67.00
2018-07-06T07:56:15.618Z,67.61
2018-07-06T07:57:15.645Z,67.00
2018-07-06T07:58:15.596Z,67.61
2018-07-06T07:59:15.588Z,67.71
2018-07-06T08:00:15.628Z,66.60
2018-07-06T08:01:15.657Z,67.00
2018-07-06T08:02:15.556Z,67.91
2018-07-06T08:03:15.545Z,68.24
2018-07-06T08:04:15.531Z,67.31
2018-07-06T08:05:15.541Z,68.04
2018-07-06T08:06:15.537Z,68.55
2018-07-06T08:07:15.512Z,68.44
2018-07-06T08:08:15.492Z,68.35
2018-07-06T08:09:15.481Z,68.24
2018-07-06T08:10:15.469Z,68.04
2018-07-06T08:11:15.494Z,68.24
2018-07-06T08:12:15.449Z,67.24
2018-07-06T08:13:15.437Z,68.24
2018-07-06T08:14:15.424Z,67.34
2018-07-06T08:15:15.416Z,67.84
2018-07-06T08:16:15.406Z,68.24
2018-07-06T08:17:15.408Z,68.58
2018-07-06T08:18:15.388Z,68.44
2018-07-06T08:19:15.374Z,68.15
2018-07-06T08:20:15.360Z,68.15
2018-07-06T08:21:15.385Z,68.35
2018-07-06T08:22:15.350Z,68.04
2018-07-06T08:23:15.331Z,67.64
2018-07-06T08:24:15.317Z,67.21
2018-07-06T08:25:15.308Z,68.01
2018-07-06T08:26:15.298Z,66.80
2018-07-06T08:27:15.349Z,67.00
2018-07-06T08:28:15.277Z,67.00
2018-07-06T08:29:15.332Z,66.77
2018-07-06T08:30:15.302Z,66.87
2018-07-06T08:31:15.242Z,66.27
2018-07-06T08:32:15.298Z,66.44
2018-07-06T08:33:15.229Z,66.57
2018-07-06T08:34:15.231Z,66.14
2018-07-06T08:35:15.204Z,66.54
2018-07-06T08:36:15.193Z,66.14
2018-07-06T08:37:15.177Z,65.91
2018-07-06T08:38:15.168Z,65.47
2018-07-06T08:39:15.158Z,64.84
2018-07-06T08:40:15.161Z,62.34
2018-07-06T08:41:15.133Z,62.34
2018-07-06T08:42:15.136Z,61.94
2018-07-06T08:43:15.127Z,59.19
2018-07-06T08:44:15.101Z,58.09
2018-07-06T08:45:15.094Z,58.89
2018-07-06T08:46:15.080Z,59.55
2018-07-06T08:47:15.167Z,60.75
2018-07-06T08:48:15.075Z,59.62
2018-07-06T08:49:15.133Z,59.09
2018-07-06T08:50:15.067Z,59.09
2018-07-06T08:51:15.040Z,58.95
2018-07-06T08:52:15.015Z,59.25
2018-07-06T08:53:15.007Z,59.78
2018-07-06T08:54:15.031Z,60.98
2018-07-06T08:55:14.984Z,60.51
2018-07-06T08:56:14.974Z,60.41
2018-07-06T08:57:15.009Z,60.84
2018-07-06T08:58:14.953Z,60.91
2018-07-06T08:59:14.940Z,59.35
2018-07-06T09:00:14.948Z,58.75
2018-07-06T09:01:14.963Z,58.45
2018-07-06T09:02:14.921Z,58.55
2018-07-06T09:03:14.899Z,58.75
2018-07-06T09:04:14.913Z,58.98
2018-07-06T09:05:14.877Z,59.18
2018-07-06T09:06:14.867Z,57.82
2018-07-06T09:07:14.875Z,53.47
2018-07-06T09:08:14.843Z,52.44
2018-07-06T09:09:14.903Z,52.59
2018-07-06T09:10:14.881Z,52.47
2018-07-06T09:11:14.811Z,50.15
2018-07-06T09:12:14.804Z,47.50
2018-07-06T09:13:14.813Z,48.46
2018-07-06T09:14:14.782Z,50.20
2018-07-06T09:15:14.770Z,50.10
2018-07-06T09:16:14.800Z,50.13
2018-07-06T09:17:14.748Z,50.95
2018-07-06T09:18:14.745Z,52.17
2018-07-06T09:19:14.743Z,51.70
2018-07-06T09:20:14.814Z,52.34
2018-07-06T09:21:14.709Z,52.47
2018-07-06T09:22:14.709Z,52.32
2018-07-06T09:23:14.740Z,49.10
2018-07-06T09:24:14.739Z,48.34
2018-07-06T09:25:14.673Z,46.78
2018-07-06T09:26:14.688Z,44.73
2018-07-06T09:27:14.644Z,44.51
2018-07-06T09:28:14.657Z,46.38
2018-07-06T09:29:14.731Z,47.32
2018-07-06T09:30:14.610Z,47.25
2018-07-06T09:31:14.600Z,48.08
2018-07-06T09:32:14.590Z,47.99
2018-07-06T09:33:14.581Z,45.83
2018-07-06T09:34:14.573Z,46.72
2018-07-06T09:35:14.574Z,47.34
2018-07-06T09:36:14.547Z,45.01
2018-07-06T09:37:14.615Z,47.05
2018-07-06T09:38:14.537Z,44.49
2018-07-06T09:39:14.518Z,43.74
2018-07-06T09:40:14.581Z,42.72
2018-07-06T09:41:14.499Z,43.36
2018-07-06T09:42:14.489Z,44.12
2018-07-06T09:43:14.477Z,42.69
2018-07-06T09:44:14.464Z,42.05
2018-07-06T09:45:14.467Z,42.23
2018-07-06T09:46:14.445Z,42.11
2018-07-06T09:47:14.491Z,41.69
2018-07-06T09:48:14.460Z,40.78
2018-07-06T09:49:14.415Z,41.67
2018-07-06T09:50:14.511Z,41.46
2018-07-06T09:51:14.394Z,40.47
2018-07-06T09:52:14.388Z,40.74
2018-07-06T09:53:14.423Z,40.25
2018-07-06T09:54:14.366Z,40.42
2018-07-06T09:55:14.417Z,40.13
2018-07-06T09:56:14.364Z,39.43
2018-07-06T09:57:14.335Z,39.24
2018-07-06T09:58:14.322Z,39.12
2018-07-06T09:59:14.312Z,39.12
2018-07-06T10:00:14.302Z,39.91
2018-07-06T10:01:14.289Z,38.92
2018-07-06T10:02:14.421Z,38.92
2018-07-06T10:03:14.302Z,38.81
2018-07-06T10:04:14.296Z,39.20
2018-07-06T10:05:14.327Z,38.13
2018-07-06T10:06:14.239Z,39.30
2018-07-06T10:07:14.230Z,38.71
2018-07-06T10:08:14.237Z,38.71
2018-07-06T10:09:14.269Z,38.41
2018-07-06T10:10:14.257Z,38.90
2018-07-06T10:11:14.190Z,38.71
2018-07-06T10:12:14.194Z,39.00
2018-07-06T10:13:14.185Z,38.71
2018-07-06T10:14:14.159Z,38.21
2018-07-06T10:15:14.223Z,38.31
2018-07-06T10:16:14.202Z,38.69
2018-07-06T10:17:14.133Z,38.67
2018-07-06T10:18:14.163Z,39.03
2018-07-06T10:19:14.189Z,39.20
2018-07-06T10:20:14.177Z,39.12
2018-07-06T10:21:14.111Z,39.00
2018-07-06T10:22:14.147Z,37.88
2018-07-06T10:23:14.074Z,38.21
2018-07-06T10:24:14.062Z,39.34
2018-07-06T10:25:14.049Z,40.19
2018-07-06T10:26:14.040Z,39.69
2018-07-06T10:27:14.074Z,40.29
2018-07-06T10:28:14.018Z,40.05
2018-07-06T10:29:14.007Z,39.14
2018-07-06T10:30:14.002Z,39.42
2018-07-06T10:31:13.990Z,37.80
2018-07-06T10:32:13.990Z,36.91
2018-07-06T10:33:14.097Z,37.64
2018-07-06T10:34:13.956Z,38.33
2018-07-06T10:35:13.974Z,37.52
2018-07-06T10:36:13.937Z,37.74
2018-07-06T10:37:13.926Z,38.02
2018-07-06T10:38:13.916Z,37.49
2018-07-06T10:39:13.906Z,36.11
2018-07-06T10:40:14.026Z,35.69
2018-07-06T10:41:13.907Z,36.40
2018-07-06T10:42:13.930Z,36.57
2018-07-06T10:43:13.884Z,35.97
2018-07-06T10:44:13.859Z,36.48
2018-07-06T10:45:13.852Z,36.07
2018-07-06T10:46:13.841Z,36.21
2018-07-06T10:47:13.850Z,35.81
2018-07-06T10:48:13.818Z,36.78
2018-07-06T10:49:13.806Z,35.86
2018-07-06T10:50:13.799Z,35.54
2018-07-06T10:51:13.787Z,34.94
2018-07-06T10:52:13.775Z,35.33
2018-07-06T10:53:13.782Z,35.61
2018-07-06T10:54:13.798Z,35.21
2018-07-06T10:55:13.746Z,35.21
2018-07-06T10:56:13.822Z,35.30
2018-07-06T10:57:13.742Z,35.02
2018-07-06T10:58:13.717Z,35.56
2018-07-06T10:59:13.797Z,35.40
2018-07-06T11:00:13.698Z,35.52
2018-07-06T11:01:13.690Z,35.41
2018-07-06T11:02:13.744Z,35.50
2018-07-06T11:03:13.668Z,35.71
2018-07-06T11:04:13.694Z,36.12
2018-07-06T11:05:13.774Z,36.52
2018-07-06T11:06:13.701Z,37.09
2018-07-06T11:07:13.630Z,36.36
2018-07-06T11:08:13.620Z,36.25
2018-07-06T11:09:13.607Z,35.18
2018-07-06T11:10:13.611Z,34.75
2018-07-06T11:11:13.590Z,34.06
2018-07-06T11:12:13.580Z,34.64
2018-07-06T11:13:13.580Z,34.34
2018-07-06T11:14:13.569Z,33.77
2018-07-06T11:15:13.563Z,33.86
2018-07-06T11:16:13.541Z,34.08
2018-07-06T11:17:13.527Z,33.97
2018-07-06T11:18:13.517Z,34.27
2018-07-06T11:19:13.532Z,34.05
2018-07-06T11:20:13.500Z,32.26
2018-07-06T11:21:13.490Z,33.54
2018-07-06T11:22:13.480Z,33.33
2018-07-06T11:23:13.488Z,33.72
2018-07-06T11:24:13.461Z,32.74
2018-07-06T11:25:13.516Z,33.15
2018-07-06T11:26:13.438Z,33.05
2018-07-06T11:27:13.428Z,32.17
2018-07-06T11:28:13.445Z,33.25
2018-07-06T11:29:13.410Z,33.62
2018-07-06T11:30:13.399Z,33.72
2018-07-06T11:31:13.394Z,33.02
2018-07-06T11:32:13.503Z,32.61
2018-07-06T11:33:13.372Z,32.53
2018-07-06T11:34:13.377Z,33.12
2018-07-06T11:35:13.352Z,33.70
2018-07-06T11:36:13.343Z,33.29
2018-07-06T11:37:13.333Z,32.81
2018-07-06T11:38:13.384Z,32.62
2018-07-06T11:39:13.332Z,32.65
2018-07-06T11:40:13.304Z,33.67
2018-07-06T11:41:13.296Z,33.67
2018-07-06T11:42:13.356Z,33.29
2018-07-06T11:43:13.329Z,33.64
2018-07-06T11:44:13.265Z,34.84
2018-07-06T11:45:13.287Z,34.39
2018-07-06T11:46:13.242Z,34.18
2018-07-06T11:47:13.232Z,32.77
2018-07-06T11:48:13.224Z,33.56
2018-07-06T11:49:13.212Z,33.75
2018-07-06T11:50:13.233Z,33.01
2018-07-06T11:51:13.195Z,33.82
2018-07-06T11:52:13.279Z,35.04
2018-07-06T11:53:13.171Z,36.04
2018-07-06T11:54:13.164Z,35.76
2018-07-06T11:55:13.253Z,35.07
2018-07-06T11:56:13.144Z,34.64
2018-07-06T11:57:13.134Z,34.01
2018-07-06T11:58:13.174Z,33.11
2018-07-06T11:59:13.115Z,33.22
2018-07-06T12:00:13.100Z,32.31
2018-07-06T12:01:13.106Z,33.11
2018-07-06T12:02:13.161Z,33.29
2018-07-06T12:03:13.085Z,32.60
2018-07-06T12:04:13.173Z,32.59
2018-07-06T12:05:13.050Z,32.77
2018-07-06T12:06:13.067Z,31.59
2018-07-06T12:07:13.033Z,32.28
2018-07-06T12:08:13.024Z,32.17
2018-07-06T12:09:13.050Z,32.26
2018-07-06T12:10:13.075Z,30.98
2018-07-06T12:11:12.990Z,31.69
2018-07-06T12:12:12.995Z,32.31
2018-07-06T12:13:12.973Z,32.92
2018-07-06T12:14:12.971Z,32.23
2018-07-06T12:15:12.953Z,33.39
2018-07-06T12:16:12.947Z,33.31
2018-07-06T12:17:12.945Z,34.13
2018-07-06T12:18:12.922Z,33.97
2018-07-06T12:19:12.951Z,34.86
2018-07-06T12:20:12.906Z,34.55
2018-07-06T12:21:12.953Z,34.64
2018-07-06T12:22:12.882Z,33.74
2018-07-06T12:23:12.870Z,34.00
2018-07-06T12:24:12.861Z,32.95
2018-07-06T12:25:12.903Z,32.41
2018-07-06T12:26:12.844Z,32.80
2018-07-06T12:27:12.829Z,32.80
2018-07-06T12:28:12.819Z,32.60
2018-07-06T12:29:12.885Z,31.51
2018-07-06T12:30:12.812Z,31.80
2018-07-06T12:31:12.792Z,32.00
2018-07-06T12:32:12.781Z,31.70
2018-07-06T12:33:12.769Z,31.51
2018-07-06T12:34:12.761Z,31.11
2018-07-06T12:35:12.791Z,30.31
2018-07-06T12:36:12.744Z,30.80
2018-07-06T12:37:12.729Z,29.80
2018-07-06T12:38:12.722Z,29.71
2018-07-06T12:39:12.712Z,29.71
2018-07-06T12:40:12.711Z,29.90
2018-07-06T12:41:12.792Z,29.31
2018-07-06T12:42:12.682Z,29.41
2018-07-06T12:43:12.670Z,29.71
2018-07-06T12:44:12.664Z,30.98
2018-07-06T12:45:12.654Z,30.00
2018-07-06T12:46:12.655Z,29.92
2018-07-06T12:47:12.640Z,30.60
2018-07-06T12:48:12.625Z,29.82
2018-07-06T12:49:12.732Z,29.74
2018-07-06T12:50:12.654Z,30.52
2018-07-06T12:51:12.615Z,30.72
2018-07-06T12:52:12.595Z,30.80